Time;durP1;ratioP1;P1;durP2;ratioP2;P2;SDS_P1;SDS_P2;PMS_P1;PMS_P2;Temp;Humidity;BMP_temperature;BMP_pressure;BME280_temperature;BME280_humidity;BME280_pressure;Samples;Min_cycle;Max_cycle;Signal;HPM_P1;HPM_P2
2021/03/15 00:00:29;;;;;;;4.40;2.03;;;;;;;5.29;53.32;100637.41;8019657;28;20106;-69
2021/03/15 00:04:20;;;;;;;8.23;2.03;;;;;;;5.31;53.24;100632.13;8019006;28;20094;-67
2021/03/15 00:08:11;;;;;;;5.75;2.13;;;;;;;5.27;53.32;100620.16;8020400;28;20024;-68
2021/03/15 00:12:02;;;;;;;6.05;1.83;;;;;;;5.30;53.15;100617.41;8021150;28;20452;-68
2021/03/15 00:15:55;;;;;;;7.78;2.38;;;;;;;5.36;53.58;100614.50;8022504;28;20041;-68
2021/03/15 00:19:45;;;;;;;5.38;2.55;;;;;;;5.38;53.46;100616.13;8020220;28;20095;-68
2021/03/15 00:23:36;;;;;;;5.47;2.30;;;;;;;5.38;53.40;100610.06;8025993;28;20045;-68
2021/03/15 00:27:42;;;;;;;6.15;2.45;;;;;;;5.40;53.49;100605.59;8018053;28;20036;-68
2021/03/15 00:31:32;;;;;;;5.55;2.55;;;;;;;5.39;53.59;100594.38;8012626;28;20041;-69
2021/03/15 00:35:23;;;;;;;5.28;2.67;;;;;;;5.41;53.50;100586.47;8012635;28;20033;-67
2021/03/15 00:39:14;;;;;;;8.77;2.90;;;;;;;5.42;53.42;100582.94;8012817;28;20036;-68
2021/03/15 00:43:05;;;;;;;13.10;2.25;;;;;;;5.43;53.68;100576.81;8016929;28;20032;-68
2021/03/15 00:46:55;;;;;;;6.47;1.92;;;;;;;5.44;53.48;100574.13;8016671;28;20408;-68
2021/03/15 00:50:46;;;;;;;8.32;1.88;;;;;;;5.45;53.70;100554.97;8020212;28;20039;-67
2021/03/15 00:54:42;;;;;;;6.80;2.35;;;;;;;5.47;53.73;100552.31;8022434;28;20037;-68
2021/03/15 00:58:45;;;;;;;7.05;1.98;;;;;;;5.45;53.66;100544.56;8022829;28;20061;-68
2021/03/15 01:02:36;;;;;;;8.27;2.08;;;;;;;5.46;53.75;100554.06;8022196;28;20045;-66
2021/03/15 01:06:26;;;;;;;5.60;1.88;;;;;;;5.44;53.67;100537.66;8025109;28;20048;-69
2021/03/15 01:10:40;;;;;;;9.40;2.40;;;;;;;5.45;53.89;100534.13;8011652;28;20040;-69
2021/03/15 01:14:31;;;;;;;5.28;2.38;;;;;;;5.42;53.94;100525.63;8006545;28;20032;-68
2021/03/15 01:18:31;;;;;;;6.43;2.25;;;;;;;5.46;53.32;100525.41;8011378;28;20059;-67
2021/03/15 01:22:22;;;;;;;7.75;2.35;;;;;;;5.46;54.11;100525.41;8013228;28;20028;-68
2021/03/15 01:26:12;;;;;;;4.85;1.90;;;;;;;5.49;54.12;100519.19;8014027;28;20039;-68
2021/03/15 01:30:15;;;;;;;6.55;2.08;;;;;;;5.47;53.97;100511.47;8017054;28;20051;-68
2021/03/15 01:34:06;;;;;;;7.18;2.35;;;;;;;5.44;54.11;100508.16;8017166;28;21891;-68
2021/03/15 01:37:57;;;;;;;7.97;2.42;;;;;;;5.43;54.13;100509.94;8019757;28;20024;-68
2021/03/15 01:41:47;;;;;;;7.32;2.35;;;;;;;5.36;54.25;100503.31;8019820;28;20041;-68
2021/03/15 01:45:38;;;;;;;2.50;1.42;;;;;;;5.29;54.50;100494.13;8021704;28;20086;-67
2021/03/15 01:49:29;;;;;;;4.68;1.88;;;;;;;5.25;54.58;100495.22;8024057;28;20121;-68
2021/03/15 01:53:20;;;;;;;4.00;1.30;;;;;;;5.25;54.35;100483.94;8006781;28;20115;-68
2021/03/15 01:57:11;;;;;;;3.03;1.25;;;;;;;5.22;54.47;100468.50;8013647;28;20074;-68
2021/03/15 02:01:02;;;;;;;2.88;1.67;;;;;;;5.23;54.62;100457.97;8011018;28;20071;-68
2021/03/15 02:04:53;;;;;;;1.80;1.00;;;;;;;5.25;54.24;100453.53;8011902;28;20052;-68
2021/03/15 02:08:44;;;;;;;1.23;1.13;;;;;;;5.24;54.15;100443.19;8013584;28;20067;-68
2021/03/15 02:13:05;;;;;;;1.92;1.20;;;;;;;5.26;54.44;100439.63;8015678;28;20497;-67
2021/03/15 02:17:08;;;;;;;2.08;1.20;;;;;;;5.25;54.34;100440.53;8012319;28;20040;-68
2021/03/15 02:21:40;;;;;;;2.55;1.10;;;;;;;5.26;54.52;100428.34;8014917;28;20447;-66
2021/03/15 02:26:08;;;;;;;6.00;1.73;;;;;;;5.25;54.53;100426.66;8015112;28;20036;-67
2021/03/15 02:30:05;;;;;;;5.82;1.35;;;;;;;5.26;54.51;100423.13;8019364;28;20083;-67
2021/03/15 02:33:55;;;;;;;4.43;1.50;;;;;;;5.27;54.22;100417.84;8009592;28;20044;-67
2021/03/15 02:37:52;;;;;;;2.78;1.73;;;;;;;5.28;54.52;100414.31;8014144;28;20041;-68
2021/03/15 02:41:45;;;;;;;5.65;2.85;;;;;;;5.27;54.54;100404.00;8008737;28;20509;-68
2021/03/15 02:45:37;;;;;;;3.20;1.50;;;;;;;5.24;54.49;100402.38;8015219;28;20041;-68
2021/03/15 02:49:34;;;;;;;3.97;2.00;;;;;;;5.26;54.53;100397.94;8014452;28;20037;-68
2021/03/15 02:53:26;;;;;;;4.88;1.52;;;;;;;5.30;54.63;100402.06;8014116;28;20071;-69
2021/03/15 02:57:19;;;;;;;4.68;1.83;;;;;;;5.33;54.44;100395.84;8016296;28;20039;-67
2021/03/15 03:01:10;;;;;;;3.85;1.58;;;;;;;5.30;54.42;100399.47;8017859;28;20120;-67
2021/03/15 03:05:06;;;;;;;2.22;1.52;;;;;;;5.35;54.79;100400.06;8018942;28;20029;-67
2021/03/15 03:08:59;;;;;;;7.13;2.28;;;;;;;5.36;54.86;100395.69;8020832;28;20052;-64
2021/03/15 03:12:52;;;;;;;3.25;1.48;;;;;;;5.39;54.85;100400.75;8010058;28;20497;-66
2021/03/15 03:16:43;;;;;;;3.55;1.55;;;;;;;5.39;54.90;100396.41;8006902;28;20061;-65
2021/03/15 03:20:34;;;;;;;3.78;1.42;;;;;;;5.43;54.81;100402.28;8001010;28;20033;-67
2021/03/15 03:24:28;;;;;;;4.65;1.27;;;;;;;5.43;54.95;100400.53;8011388;28;20033;-67
2021/03/15 03:28:19;;;;;;;5.78;2.20;;;;;;;5.46;54.96;100407.31;8014667;28;20033;-66
2021/03/15 03:32:11;;;;;;;3.72;1.90;;;;;;;5.47;54.76;100396.84;8013706;28;20050;-67
2021/03/15 03:36:01;;;;;;;5.70;2.08;;;;;;;5.48;54.99;100405.47;8015380;28;20112;-67
2021/03/15 03:39:52;;;;;;;4.38;1.80;;;;;;;5.50;54.78;100412.28;8013491;28;20029;-68
2021/03/15 03:43:43;;;;;;;8.10;1.83;;;;;;;5.50;54.95;100407.09;8016901;28;20131;-66
2021/03/15 03:47:36;;;;;;;3.17;2.03;;;;;;;5.51;54.83;100410.53;8017681;28;20661;-69
2021/03/15 03:51:31;;;;;;;4.38;1.65;;;;;;;5.50;55.01;100411.44;8011831;28;20043;-67
2021/03/15 03:55:27;;;;;;;2.75;1.75;;;;;;;5.49;55.10;100402.78;8026546;28;20032;-67
2021/03/15 03:59:22;;;;;;;3.08;1.60;;;;;;;5.51;55.07;100410.53;8006398;28;20444;-67
2021/03/15 04:03:17;;;;;;;3.10;1.70;;;;;;;5.52;55.23;100415.66;8008653;28;20065;-67
2021/03/15 04:07:09;;;;;;;3.53;1.98;;;;;;;5.49;55.39;100414.97;8010188;28;20068;-65
2021/03/15 04:11:01;;;;;;;2.72;1.88;;;;;;;5.48;55.16;100421.94;8015068;28;20562;-68
2021/03/15 04:14:54;;;;;;;2.78;1.95;;;;;;;5.50;55.12;100435.75;8018253;28;20028;-67
2021/03/15 04:18:47;;;;;;;5.65;2.40;;;;;;;5.49;55.22;100436.66;8017823;28;20102;-65
2021/03/15 04:22:46;;;;;;;3.47;2.08;;;;;;;5.48;55.39;100450.59;8020429;28;20060;-68
2021/03/15 04:26:39;;;;;;;4.28;2.25;;;;;;;5.48;55.31;100453.19;8015584;28;20029;-67
2021/03/15 04:30:30;;;;;;;3.50;2.20;;;;;;;5.46;55.63;100457.66;8026780;28;20032;-68
2021/03/15 04:34:22;;;;;;;2.28;2.08;;;;;;;5.47;55.72;100458.50;8023000;28;20028;-68
2021/03/15 04:38:12;;;;;;;4.85;2.20;;;;;;;5.46;55.67;100462.03;8024833;28;20047;-68
2021/03/15 04:42:05;;;;;;;3.47;2.28;;;;;;;5.44;55.62;100462.09;8018675;28;20413;-66
2021/03/15 04:45:55;;;;;;;4.88;2.70;;;;;;;5.47;55.55;100466.31;8013151;28;20033;-67
2021/03/15 04:49:48;;;;;;;4.03;2.35;;;;;;;5.47;55.46;100471.53;8015028;28;20063;-65
2021/03/15 04:53:40;;;;;;;4.95;2.78;;;;;;;5.44;55.48;100471.66;8014971;28;20119;-68
2021/03/15 04:57:32;;;;;;;3.85;2.42;;;;;;;5.45;55.76;100487.22;8019110;28;20488;-68
2021/03/15 05:01:28;;;;;;;2.55;2.05;;;;;;;5.45;55.63;100496.81;8018895;28;20526;-68
2021/03/15 05:05:20;;;;;;;3.72;2.30;;;;;;;5.41;55.46;100506.53;8018260;28;20093;-67
2021/03/15 05:09:13;;;;;;;3.30;2.58;;;;;;;5.41;55.71;100509.16;8003609;28;20033;-67
2021/03/15 05:13:05;;;;;;;3.53;2.53;;;;;;;5.39;55.72;100521.44;8018002;28;20504;-68
2021/03/15 05:16:56;;;;;;;4.00;2.60;;;;;;;5.35;55.69;100527.72;8022968;28;20036;-68
2021/03/15 05:20:48;;;;;;;3.83;2.53;;;;;;;5.33;55.70;100529.53;8026466;28;20048;-68
2021/03/15 05:24:40;;;;;;;3.10;2.30;;;;;;;5.33;55.87;100536.50;8017044;28;20507;-67
2021/03/15 05:28:31;;;;;;;2.28;2.03;;;;;;;5.33;55.76;100542.56;8005309;28;20640;-68
2021/03/15 05:32:24;;;;;;;3.25;2.15;;;;;;;5.30;55.64;100544.47;8010941;28;20032;-67
2021/03/15 05:36:16;;;;;;;2.70;1.73;;;;;;;5.29;55.59;100542.78;8013329;28;20025;-66
2021/03/15 05:40:10;;;;;;;3.42;2.03;;;;;;;5.27;55.86;100555.06;8013904;28;20546;-68
2021/03/15 05:44:28;;;;;;;2.42;2.15;;;;;;;5.23;55.85;100566.53;8013005;28;20580;-68
2021/03/15 05:48:46;;;;;;;2.65;1.92;;;;;;;5.19;55.99;100574.47;8020893;28;20032;-68
2021/03/15 05:52:52;;;;;;;2.08;1.83;;;;;;;5.17;55.58;100575.47;8010077;28;20045;-68
2021/03/15 05:57:10;;;;;;;3.67;2.42;;;;;;;5.16;55.70;100579.00;8019171;28;20387;-68
2021/03/15 06:01:19;;;;;;;2.63;1.85;;;;;;;5.16;55.88;100586.81;8024433;28;20052;-68
2021/03/15 06:05:17;;;;;;;3.15;1.98;;;;;;;5.18;55.63;100603.22;7950215;28;20083;-65
2021/03/15 06:09:13;;;;;;;2.22;1.98;;;;;;;5.19;55.86;100603.13;7965628;28;20042;-67
2021/03/15 06:13:15;;;;;;;2.63;2.13;;;;;;;5.22;55.89;100614.31;7969719;28;20501;-66
2021/03/15 06:17:08;;;;;;;2.58;2.10;;;;;;;5.26;55.61;100623.69;7980332;28;20580;-68
2021/03/15 06:21:00;;;;;;;3.97;2.58;;;;;;;5.30;55.92;100618.25;7967235;28;20448;-66
2021/03/15 06:24:51;;;;;;;3.42;2.30;;;;;;;5.31;55.68;100627.72;7966404;28;20776;-66
2021/03/15 06:28:41;;;;;;;3.10;2.17;;;;;;;5.32;55.68;100625.97;7967088;28;20090;-68
2021/03/15 06:32:33;;;;;;;3.90;2.17;;;;;;;5.31;56.02;100629.50;7963806;28;20053;-67
2021/03/15 06:36:24;;;;;;;3.65;2.55;;;;;;;5.30;55.73;100636.47;7960467;28;20037;-66
2021/03/15 06:40:15;;;;;;;2.80;2.20;;;;;;;5.34;55.65;100651.03;7964168;28;20568;-64
2021/03/15 06:44:06;;;;;;;2.30;2.08;;;;;;;5.36;55.91;100651.81;7963628;28;20026;-68
2021/03/15 06:47:58;;;;;;;3.65;2.40;;;;;;;5.39;55.97;100659.50;7963526;28;20083;-67
2021/03/15 06:52:05;;;;;;;6.18;2.40;;;;;;;5.44;55.90;100667.06;7962276;28;20037;-68
2021/03/15 06:55:56;;;;;;;4.38;2.47;;;;;;;5.58;56.19;100665.50;7962626;28;20067;-66
2021/03/15 06:59:47;;;;;;;5.53;2.60;;;;;;;5.79;56.46;100670.56;7960952;28;20488;-67
2021/03/15 07:03:38;;;;;;;5.40;2.70;;;;;;;5.91;56.06;100686.44;7961037;28;20103;-67
2021/03/15 07:07:29;;;;;;;4.88;2.72;;;;;;;6.02;56.45;100680.69;7979238;28;20025;-67
2021/03/15 07:11:28;;;;;;;4.20;2.80;;;;;;;6.26;56.32;100689.06;7966400;28;20124;-68
2021/03/15 07:15:19;;;;;;;5.03;3.38;;;;;;;6.51;56.34;100690.31;7966084;28;20037;-68
2021/03/15 07:19:22;;;;;;;4.13;2.53;;;;;;;6.79;56.09;100700.19;7962476;28;20034;-68
2021/03/15 07:23:14;;;;;;;6.25;2.90;;;;;;;6.87;55.83;100703.25;7959715;28;20040;-66
2021/03/15 07:27:05;;;;;;;5.88;2.80;;;;;;;7.10;56.08;100715.06;7959074;28;20045;-68
2021/03/15 07:30:55;;;;;;;5.05;2.78;;;;;;;7.36;55.89;100711.88;7957224;28;20041;-68
2021/03/15 07:34:46;;;;;;;4.18;2.95;;;;;;;7.83;56.47;100704.00;7957088;28;20572;-64
2021/03/15 07:38:37;;;;;;;4.45;2.47;;;;;;;8.63;56.29;100729.81;7959762;28;20044;-68
2021/03/15 07:42:28;;;;;;;4.35;2.40;;;;;;;9.32;56.01;100723.78;7956090;28;20021;-66
2021/03/15 07:46:29;;;;;;;5.15;2.53;;;;;;;9.97;55.57;100735.31;7961666;28;20662;-66
2021/03/15 07:50:19;;;;;;;4.78;2.53;;;;;;;10.93;55.51;100732.28;7962154;28;20056;-67
2021/03/15 07:54:10;;;;;;;3.88;2.58;;;;;;;12.06;54.87;100746.06;7965388;28;20029;-68
2021/03/15 07:58:02;;;;;;;6.63;2.97;;;;;;;13.21;54.27;100750.34;7967818;28;20083;-65
2021/03/15 08:01:52;;;;;;;3.95;2.13;;;;;;;13.56;53.02;100757.28;7967327;28;20034;-67
2021/03/15 08:05:44;;;;;;;6.80;3.10;;;;;;;13.19;51.72;100754.06;7970179;28;20090;-65
2021/03/15 08:09:34;;;;;;;7.22;2.90;;;;;;;13.12;51.47;100763.41;7968893;28;20530;-64
2021/03/15 08:13:28;;;;;;;5.47;2.90;;;;;;;13.38;51.42;100767.47;7966278;28;20494;-66
2021/03/15 08:17:21;;;;;;;5.60;2.75;;;;;;;13.81;51.21;100772.81;7976109;28;20082;-67
2021/03/15 08:21:20;;;;;;;7.07;3.17;;;;;;;14.22;50.69;100777.34;7969807;28;20046;-64
2021/03/15 08:25:11;;;;;;;5.30;2.70;;;;;;;14.26;50.13;100781.41;7970599;28;20040;-67
2021/03/15 08:29:03;;;;;;;10.50;3.13;;;;;;;13.74;49.63;100788.31;7970992;28;20040;-67
2021/03/15 08:32:54;;;;;;;5.40;2.97;;;;;;;13.04;49.33;100800.09;7966014;28;20041;-63
2021/03/15 08:36:46;;;;;;;5.60;2.60;;;;;;;12.45;49.25;100803.66;7965685;28;20700;-68
2021/03/15 08:40:45;;;;;;;3.58;2.55;;;;;;;11.87;49.36;100816.78;7964056;28;20037;-66
2021/03/15 08:44:49;;;;;;;7.53;2.42;;;;;;;11.31;49.29;100812.91;7964923;28;20705;-64
2021/03/15 08:48:40;;;;;;;4.65;2.60;;;;;;;11.19;50.11;100819.03;7962816;28;20402;-63
2021/03/15 08:52:35;;;;;;;4.25;2.97;;;;;;;11.64;50.80;100812.34;7964063;28;20513;-66
2021/03/15 08:56:28;;;;;;;6.93;3.25;;;;;;;12.05;50.70;100810.19;7964431;28;20037;-65
2021/03/15 09:00:33;;;;;;;7.25;2.58;;;;;;;11.91;50.07;100813.81;7962520;28;20179;-61
2021/03/15 09:04:31;;;;;;;3.67;2.35;;;;;;;11.59;49.56;100817.94;7957706;28;20049;-68
2021/03/15 09:09:00;;;;;;;5.53;2.30;;;;;;;11.75;50.01;100821.16;7962586;28;20444;-66
2021/03/15 09:13:22;;;;;;;;;;;;;;;11.49;50.38;100822.13;7965057;28;20029;-67
2021/03/15 09:17:16;;;;;;;4.35;2.45;;;;;;;11.21;49.89;100833.72;7960529;28;19921;-67
2021/03/15 09:21:28;;;;;;;4.53;2.22;;;;;;;10.88;49.68;100829.00;7968402;28;20063;-65
2021/03/15 09:25:20;;;;;;;5.55;2.53;;;;;;;10.57;49.67;100827.59;7967345;28;20691;-66
2021/03/15 09:29:11;;;;;;;5.72;2.30;;;;;;;10.38;49.61;100827.09;7968321;28;20112;-62
2021/03/15 09:33:03;;;;;;;3.28;1.73;;;;;;;10.43;49.82;100829.44;7966019;28;20462;-65
2021/03/15 09:36:56;;;;;;;3.80;2.20;;;;;;;11.16;51.26;100831.41;7958149;28;20379;-61
2021/03/15 09:40:53;;;;;;;5.45;2.17;;;;;;;11.52;51.88;100840.34;7962292;28;20042;-66
2021/03/15 09:44:45;;;;;;;4.97;2.05;;;;;;;11.49;51.53;100838.75;7963633;28;20045;-66
2021/03/15 09:48:37;;;;;;;4.93;2.10;;;;;;;11.47;50.88;100830.13;7963998;28;20088;-66
2021/03/15 09:52:31;;;;;;;5.82;1.67;;;;;;;11.42;50.28;100847.19;7960451;28;20037;-63
2021/03/15 09:56:43;;;;;;;7.70;1.95;;;;;;;11.29;49.73;100825.31;7963470;28;20052;-67
2021/03/15 10:00:55;;;;;;;9.40;2.47;;;;;;;11.21;49.67;100827.63;7945045;28;20132;-64
2021/03/15 10:05:19;;;;;;;3.50;1.70;;;;;;;11.15;49.59;100827.09;7962738;28;20039;-64
2021/03/15 10:09:32;;;;;;;4.82;1.75;;;;;;;11.08;49.24;100833.75;7959608;28;20490;-67
2021/03/15 10:13:42;;;;;;;6.68;2.15;;;;;;;10.92;49.26;100848.88;7963764;28;20045;-66
2021/03/15 10:18:05;;;;;;;6.30;1.83;;;;;;;10.79;49.15;100842.75;7937142;28;20037;-65
2021/03/15 10:22:18;;;;;;;3.05;1.25;;;;;;;10.74;48.86;100838.75;7961119;28;20452;-64
2021/03/15 10:26:10;;;;;;;4.90;1.65;;;;;;;10.61;48.70;100846.63;7965500;28;20116;-62
2021/03/15 10:30:11;;;;;;;3.53;1.40;;;;;;;10.48;48.49;100883.34;7961540;28;20025;-66
2021/03/15 10:34:07;;;;;;;4.35;1.35;;;;;;;10.24;48.60;100900.66;7964711;28;22302;-65
2021/03/15 10:38:08;;;;;;;3.03;1.15;;;;;;;9.87;48.66;100901.31;7966280;28;20057;-65
2021/03/15 10:42:08;;;;;;;2.05;0.80;;;;;;;9.58;48.52;100900.47;7965193;28;20064;-63
2021/03/15 10:46:22;;;;;;;2.17;0.80;;;;;;;9.36;48.50;100900.13;7966262;28;20087;-65
2021/03/15 10:50:24;;;;;;;3.92;0.90;;;;;;;9.24;48.86;100909.53;7959920;28;20141;-65
2021/03/15 10:54:50;;;;;;;2.75;0.82;;;;;;;9.10;49.41;100899.03;7892466;28;20742;-66
2021/03/15 10:58:42;;;;;;;2.30;0.85;;;;;;;9.18;49.66;100910.75;7958731;28;20641;-66
2021/03/15 11:02:45;;;;;;;1.40;0.82;;;;;;;9.18;49.42;100905.50;7955939;28;20033;-66
2021/03/15 11:06:41;;;;;;;3.85;1.33;;;;;;;9.14;49.60;100897.91;7959006;28;20106;-69
2021/03/15 11:10:48;;;;;;;1.42;1.00;;;;;;;9.00;49.46;100884.75;7961740;28;20497;-69
2021/03/15 11:15:11;;;;;;;3.20;1.23;;;;;;;8.94;49.65;100900.88;7960807;28;20034;-69
2021/03/15 11:19:05;;;;;;;2.78;1.15;;;;;;;8.93;49.94;100880.84;7935909;28;20422;-65
2021/03/15 11:23:00;;;;;;;6.53;1.10;;;;;;;8.94;49.98;100895.63;7932533;28;20045;-68
2021/03/15 11:26:53;;;;;;;4.63;1.20;;;;;;;9.04;50.16;100902.03;7935769;28;20053;-68
2021/03/15 11:30:55;;;;;;;4.10;1.15;;;;;;;9.17;49.85;100901.19;7957428;28;20068;-68
2021/03/15 11:34:51;;;;;;;;;;;;;;;9.27;50.57;100902.34;7979680;28;20053;-69
2021/03/15 11:38:55;;;;;;;3.13;1.10;;;;;;;9.52;49.98;100893.84;7964124;28;20098;-70
2021/03/15 11:42:55;;;;;;;3.42;1.55;;;;;;;9.67;49.87;100906.00;7961306;28;20131;-63
2021/03/15 11:46:46;;;;;;;3.88;1.33;;;;;;;9.72;49.14;100911.81;7960233;28;20041;-65
2021/03/15 11:50:43;;;;;;;3.50;1.30;;;;;;;9.76;49.41;100904.59;7959976;28;20041;-63
2021/03/15 11:54:42;;;;;;;1.65;1.00;;;;;;;9.81;49.11;100905.16;7956211;28;20435;-65
2021/03/15 11:58:36;;;;;;;4.07;1.13;;;;;;;9.78;48.95;100898.31;7959675;28;20048;-63
2021/03/15 12:02:29;;;;;;;2.67;0.88;;;;;;;9.71;48.88;100902.25;7958467;28;20037;-64
2021/03/15 12:06:24;;;;;;;4.85;1.08;;;;;;;9.65;49.17;100904.44;7958312;28;20402;-66
2021/03/15 12:10:27;;;;;;;2.25;0.80;;;;;;;9.63;48.69;100911.53;7958964;28;20863;-66
2021/03/15 12:14:18;;;;;;;4.28;0.75;;;;;;;9.62;48.35;100913.31;7955838;28;20044;-66
2021/03/15 12:18:13;;;;;;;0.80;0.55;;;;;;;9.54;48.14;100906.84;7960354;28;20548;-64
2021/03/15 12:22:07;;;;;;;1.58;1.00;;;;;;;9.55;48.35;100905.91;7961375;28;20045;-66
2021/03/15 12:26:19;;;;;;;1.92;0.80;;;;;;;9.62;48.29;100900.19;7964015;28;20509;-65
2021/03/15 12:30:17;;;;;;;;;;;;;;;9.63;48.89;100901.91;7980138;28;20699;-66
2021/03/15 12:34:07;;;;;;;3.85;1.02;;;;;;;9.67;48.28;100900.78;7962568;28;20537;-66
2021/03/15 12:38:00;;;;;;;4.75;0.90;;;;;;;9.68;48.02;100914.72;7963961;28;20188;-67
2021/03/15 12:41:51;;;;;;;6.60;1.48;;;;;;;9.65;48.10;100928.03;7962034;28;20041;-64
2021/03/15 12:45:45;;;;;;;4.20;1.10;;;;;;;9.64;48.04;100937.69;7961528;28;20521;-65
2021/03/15 12:49:37;;;;;;;2.85;1.05;;;;;;;9.69;48.06;100929.53;7964166;28;20756;-69
2021/03/15 12:53:30;;;;;;;4.05;1.23;;;;;;;9.75;48.14;100916.03;7963881;28;20075;-66
2021/03/15 12:57:25;;;;;;;1.23;0.85;;;;;;;9.76;48.04;100929.06;7943191;28;20028;-64
2021/03/15 13:01:30;;;;;;;3.55;1.05;;;;;;;9.70;47.64;100928.63;7960532;28;20041;-66
2021/03/15 13:05:24;;;;;;;5.57;1.40;;;;;;;9.61;47.44;100937.88;7936005;28;20051;-64
2021/03/15 13:09:34;;;;;;;3.42;1.38;;;;;;;9.52;47.35;100938.44;7964122;28;20045;-65
2021/03/15 13:13:36;;;;;;;5.68;1.20;;;;;;;9.56;47.29;100942.56;7962752;28;20037;-63
2021/03/15 13:17:28;;;;;;;3.05;1.17;;;;;;;9.59;47.47;100958.09;7958890;28;20061;-66
2021/03/15 13:21:19;;;;;;;3.63;1.20;;;;;;;9.66;47.31;100958.56;7961098;28;20543;-65
2021/03/15 13:25:11;;;;;;;4.05;1.00;;;;;;;9.65;47.26;100941.16;7961848;28;20151;-64
2021/03/15 13:29:02;;;;;;;6.15;1.67;;;;;;;9.64;47.18;100944.72;7963464;28;20033;-65
2021/03/15 13:32:53;;;;;;;4.60;1.25;;;;;;;9.62;47.21;100963.16;7965297;28;20041;-65
2021/03/15 13:36:46;;;;;;;2.80;0.80;;;;;;;9.60;47.21;100958.94;7967562;28;20445;-63
2021/03/15 13:40:51;;;;;;;5.97;1.23;;;;;;;9.52;47.17;100962.03;7979810;28;20036;-64
2021/03/15 13:44:51;;;;;;;8.48;0.95;;;;;;;9.49;47.17;100953.50;7965493;28;20044;-65
2021/03/15 13:48:42;;;;;;;6.60;1.05;;;;;;;9.47;47.31;100964.09;7982959;28;20041;-66
2021/03/15 13:52:45;;;;;;;4.57;1.45;;;;;;;9.52;47.02;100962.03;7965470;28;20041;-65
2021/03/15 13:56:39;;;;;;;5.53;1.65;;;;;;;9.52;46.97;100956.78;7949042;28;20029;-65
2021/03/15 14:00:43;;;;;;;3.65;1.00;;;;;;;9.53;46.65;100966.34;7952205;28;20063;-65
2021/03/15 14:04:54;;;;;;;3.90;1.50;;;;;;;9.59;46.93;100971.22;7964610;28;20033;-65
2021/03/15 14:08:53;;;;;;;3.10;1.20;;;;;;;9.59;46.82;100981.69;7983301;28;20033;-66
2021/03/15 14:12:44;;;;;;;5.00;1.08;;;;;;;9.54;46.64;100991.63;7983370;28;20557;-64
2021/03/15 14:16:39;;;;;;;3.50;1.00;;;;;;;9.53;46.73;101005.69;7965018;28;20429;-62
2021/03/15 14:20:34;;;;;;;2.22;1.23;;;;;;;9.53;46.79;101013.56;7977665;28;20037;-64
2021/03/15 14:24:26;;;;;;;6.55;1.13;;;;;;;9.51;46.61;100997.06;7966023;28;20037;-65
2021/03/15 14:28:25;;;;;;;;;;;;;;;9.33;47.28;101005.97;7966550;28;20040;-65
2021/03/15 14:32:35;;;;;;;3.13;0.80;;;;;;;9.26;46.98;101002.88;7963968;28;19924;-63
2021/03/15 14:36:38;;;;;;;5.15;1.45;;;;;;;9.22;47.31;101009.22;7958860;28;20041;-66
2021/03/15 14:40:38;;;;;;;5.75;1.35;;;;;;;9.28;47.39;101013.28;7961080;28;20702;-65
2021/03/15 14:44:30;;;;;;;10.63;1.98;;;;;;;9.27;47.22;101003.72;7961349;28;20041;-64
2021/03/15 14:48:29;;;;;;;3.63;1.13;;;;;;;9.25;47.07;101011.66;7964572;28;20026;-66
2021/03/15 14:52:32;;;;;;;1.58;0.80;;;;;;;9.19;47.29;101014.66;7965050;28;20480;-66
2021/03/15 14:56:23;;;;;;;4.03;0.90;;;;;;;9.13;47.42;101022.00;7981649;28;20039;-64
2021/03/15 15:00:15;;;;;;;3.83;1.05;;;;;;;9.05;47.40;101024.22;7966605;28;20560;-65
2021/03/15 15:04:06;;;;;;;6.03;1.30;;;;;;;9.01;47.44;101031.41;7962829;28;20037;-66
2021/03/15 15:07:58;;;;;;;7.68;1.27;;;;;;;9.00;47.20;101034.97;7963488;28;20071;-69
2021/03/15 15:12:06;;;;;;;5.60;0.90;;;;;;;8.96;47.44;101051.78;7965696;28;20067;-68
2021/03/15 15:16:03;;;;;;;5.45;1.38;;;;;;;8.93;47.33;101066.84;7978282;28;20037;-68
2021/03/15 15:19:56;;;;;;;7.28;1.40;;;;;;;8.87;47.67;101065.44;7959973;28;20088;-67
2021/03/15 15:23:53;;;;;;;2.55;1.10;;;;;;;8.78;47.59;101079.88;7960113;28;20033;-68
2021/03/15 15:27:43;;;;;;;4.15;1.23;;;;;;;8.68;47.54;101104.03;7961468;28;20117;-68
2021/03/15 15:31:34;;;;;;;2.05;0.95;;;;;;;8.55;47.59;101103.84;7961771;28;20045;-68
2021/03/15 15:35:26;;;;;;;1.80;1.25;;;;;;;8.43;47.67;101109.75;7960136;28;20049;-67
2021/03/15 15:39:17;;;;;;;1.42;0.60;;;;;;;8.34;47.88;101111.06;7961658;28;20561;-68
2021/03/15 15:43:07;;;;;;;2.08;0.70;;;;;;;8.22;47.71;101105.63;7961372;28;20043;-68
2021/03/15 15:46:58;;;;;;;2.25;0.75;;;;;;;8.08;48.00;101108.97;7961492;28;20048;-69
2021/03/15 15:50:49;;;;;;;1.73;0.80;;;;;;;7.99;47.90;101121.66;7961143;28;20038;-66
2021/03/15 15:54:44;;;;;;;2.42;0.50;;;;;;;7.88;48.31;101125.66;7959648;28;20041;-68
2021/03/15 15:58:35;;;;;;;3.53;1.13;;;;;;;7.85;48.12;101112.75;7962513;28;20029;-65
2021/03/15 16:02:26;;;;;;;1.50;0.80;;;;;;;7.78;48.43;101129.69;7962569;28;20065;-67
2021/03/15 16:06:16;;;;;;;1.55;0.70;;;;;;;7.73;48.42;101134.28;7963304;28;20037;-69
2021/03/15 16:10:12;;;;;;;1.77;0.65;;;;;;;7.68;48.68;101135.44;7968878;28;20086;-68
2021/03/15 16:14:03;;;;;;;1.88;0.70;;;;;;;7.67;48.51;101139.81;7971424;28;20564;-68
2021/03/15 16:17:54;;;;;;;6.07;0.95;;;;;;;7.61;48.73;101147.97;7969749;28;20626;-66
2021/03/15 16:21:44;;;;;;;2.88;0.90;;;;;;;7.53;48.89;101146.66;7985913;28;20037;-65
2021/03/15 16:25:35;;;;;;;2.35;0.90;;;;;;;7.47;48.99;101153.00;7968882;28;20045;-68
2021/03/15 16:29:25;;;;;;;1.60;0.95;;;;;;;7.40;48.75;101151.63;7969009;28;20449;-68
2021/03/15 16:33:17;;;;;;;4.10;1.20;;;;;;;7.37;49.09;101160.47;7965864;28;20063;-65
2021/03/15 16:37:07;;;;;;;3.80;0.93;;;;;;;7.42;48.94;101174.16;7967162;28;20045;-67
2021/03/15 16:40:58;;;;;;;6.43;1.70;;;;;;;7.42;48.93;101178.56;7963204;28;20037;-68
2021/03/15 16:44:49;;;;;;;8.95;1.58;;;;;;;7.40;48.95;101183.84;7964395;28;20087;-68
2021/03/15 16:48:40;;;;;;;5.22;1.17;;;;;;;7.39;49.07;101184.75;7969030;28;20045;-66
2021/03/15 16:52:31;;;;;;;3.85;0.98;;;;;;;7.39;48.83;101195.22;7972368;28;20044;-67
2021/03/15 16:56:22;;;;;;;7.55;1.30;;;;;;;7.40;49.06;101190.84;7970094;28;20033;-69
2021/03/15 17:00:13;;;;;;;5.55;1.40;;;;;;;7.42;49.08;101202.09;7967961;28;20033;-69
2021/03/15 17:04:04;;;;;;;7.80;1.55;;;;;;;7.39;49.15;101212.66;7962466;28;20029;-68
2021/03/15 17:07:55;;;;;;;7.45;2.00;;;;;;;7.33;48.99;101202.50;7965150;28;20037;-68
2021/03/15 17:11:45;;;;;;;3.83;1.25;;;;;;;7.34;48.92;101210.25;7962863;28;20044;-67
2021/03/15 17:15:36;;;;;;;6.15;1.15;;;;;;;7.27;49.14;101206.25;7963390;28;20048;-65
2021/03/15 17:19:27;;;;;;;4.45;1.70;;;;;;;7.33;48.99;101234.72;7962035;28;20398;-66
2021/03/15 17:23:17;;;;;;;7.43;1.27;;;;;;;7.32;48.57;101245.22;7961481;28;20117;-69
2021/03/15 17:27:11;;;;;;;4.00;1.30;;;;;;;7.27;49.07;101244.59;7964040;28;20112;-68
2021/03/15 17:31:02;;;;;;;4.65;1.30;;;;;;;7.22;49.24;101257.88;7962566;28;20037;-66
2021/03/15 17:34:53;;;;;;;9.23;1.55;;;;;;;7.14;48.89;101262.59;7962304;28;20047;-66
2021/03/15 17:38:44;;;;;;;5.25;1.58;;;;;;;7.07;49.16;101266.41;7964147;28;20037;-68
2021/03/15 17:42:34;;;;;;;10.27;2.20;;;;;;;6.96;49.01;101277.38;7963119;28;20041;-68
2021/03/15 17:46:25;;;;;;;6.63;1.70;;;;;;;6.86;48.91;101270.84;7961184;28;20057;-68
2021/03/15 17:50:19;;;;;;;8.13;1.70;;;;;;;6.84;49.25;101290.09;7963227;28;20059;-67
2021/03/15 17:54:09;;;;;;;4.78;1.40;;;;;;;6.79;49.04;101292.06;7963019;28;20029;-66
2021/03/15 17:58:00;;;;;;;4.38;1.40;;;;;;;6.71;49.01;101292.38;7961708;28;20099;-68
2021/03/15 18:01:51;;;;;;;5.47;1.70;;;;;;;6.67;49.36;101300.41;7961859;28;20037;-65
2021/03/15 18:05:42;;;;;;;8.80;1.77;;;;;;;6.65;49.08;101307.44;7960616;28;20041;-66
2021/03/15 18:09:33;;;;;;;6.30;1.77;;;;;;;6.62;49.11;101313.66;7961955;28;20041;-68
2021/03/15 18:13:23;;;;;;;6.57;1.45;;;;;;;6.55;49.11;101315.66;7961014;28;20069;-66
2021/03/15 18:17:14;;;;;;;12.57;2.40;;;;;;;6.49;49.17;101315.06;7961638;28;21575;-66
2021/03/15 18:21:06;;;;;;;5.82;1.52;;;;;;;6.44;49.49;101317.88;7962095;28;20617;-65
2021/03/15 18:24:57;;;;;;;8.88;1.85;;;;;;;6.37;49.22;101316.44;7961507;28;20053;-67
2021/03/15 18:28:48;;;;;;;7.32;1.83;;;;;;;6.33;49.84;101324.44;7961759;28;20041;-71